Station Historical Data
Daily Summary for March 26, 2017 Units:  English    Metric   Both
« Previous Day
Next Day »
Daily Weekly Monthly Yearly Custom
  High: Low: Average:
Temperature: 61.8 °F 34.3 °F 47.3 °F
Dew Point: 49.9 °F 31.7 °F 40.9 °F
Humidity: 91% 61% 80%
Wind Speed: 12.0mph 0.0mph 5mph
Wind Gust: 16.0mph - -
Wind- - ESE
Pressure: 30.33 in 29.97 in -
Precipitation: 0.00 in    
Historical Graphs
 
 
Tabular Data for March 26, 2017
Time Temperature Dew Point Pressure Wind Wind Speed Wind Gust Humidity Rainfall Rate (Hourly)
00:04 34.4 °F 31.8 °F 30.33 in ENE 5.0 mph 14.0 mph 90% 0.01 in
00:09 34.3 °F 31.7 °F 30.33 in ENE 6.0 mph 14.0 mph 90% 0.01 in
00:14 34.3 °F 31.7 °F 30.33 in ENE 7.0 mph 13.0 mph 90% 0.01 in
00:19 34.3 °F 31.7 °F 30.32 in ENE 6.0 mph 13.0 mph 90% 0.01 in
00:24 34.3 °F 31.7 °F 30.32 in ENE 6.0 mph 11.0 mph 90% 0.01 in
00:29 34.3 °F 31.7 °F 30.31 in ENE 6.0 mph 13.0 mph 90% 0.01 in
00:34 34.3 °F 31.7 °F 30.31 in East 6.0 mph 13.0 mph 90% 0.00 in
00:39 34.3 °F 31.7 °F 30.31 in ENE 4.0 mph 11.0 mph 90% 0.00 in
00:44 34.3 °F 31.7 °F 30.31 in NE 6.0 mph 13.0 mph 90% 0.00 in
00:49 34.4 °F 31.8 °F 30.31 in NE 5.0 mph 9.0 mph 90% 0.00 in
00:54 34.4 °F 31.8 °F 30.31 in NE 4.0 mph 14.0 mph 90% 0.00 in
00:59 34.4 °F 31.8 °F 30.31 in East 8.0 mph 15.0 mph 90% 0.00 in
01:05 34.5 °F 31.9 °F 30.30 in NE 6.0 mph 11.0 mph 90% 0.00 in
01:10 34.6 °F 32.0 °F 30.31 in NNE 5.0 mph 12.0 mph 90% 0.00 in
01:15 34.6 °F 32.0 °F 30.31 in NE 8.0 mph 13.0 mph 90% 0.00 in
01:20 34.8 °F 32.2 °F 30.31 in ENE 7.0 mph 16.0 mph 90% 0.00 in
01:25 34.9 °F 32.3 °F 30.31 in ENE 6.0 mph 16.0 mph 90% 0.00 in
01:30 35.0 °F 32.4 °F 30.30 in ENE 6.0 mph 13.0 mph 90% 0.00 in
01:35 35.0 °F 32.4 °F 30.31 in NE 10.0 mph 12.0 mph 90% 0.00 in
01:40 35.1 °F 32.5 °F 30.31 in ENE 10.0 mph 14.0 mph 90% 0.00 in
01:45 35.1 °F 32.5 °F 30.30 in ENE 7.0 mph 14.0 mph 90% 0.00 in
01:50 35.1 °F 32.5 °F 30.30 in NE 5.0 mph 12.0 mph 90% 0.00 in
01:55 35.2 °F 32.6 °F 30.30 in ENE 6.0 mph 12.0 mph 90% 0.01 in
02:00 35.3 °F 32.7 °F 30.30 in NE 5.0 mph 13.0 mph 90% 0.02 in
02:05 35.3 °F 32.7 °F 30.30 in East 3.0 mph 13.0 mph 90% 0.02 in
02:10 35.3 °F 32.7 °F 30.30 in East 6.0 mph 10.0 mph 90% 0.02 in
02:15 35.3 °F 32.7 °F 30.29 in ENE 6.0 mph 14.0 mph 90% 0.02 in
02:20 35.3 °F 32.9 °F 30.29 in ENE 6.0 mph 14.0 mph 91% 0.02 in
02:25 35.4 °F 33.0 °F 30.29 in ENE 5.0 mph 15.0 mph 91% 0.02 in
02:30 35.4 °F 33.0 °F 30.28 in ENE 5.0 mph 15.0 mph 91% 0.02 in
02:35 35.4 °F 33.0 °F 30.27 in ENE 6.0 mph 13.0 mph 91% 0.03 in
02:40 35.5 °F 33.1 °F 30.27 in ENE 6.0 mph 12.0 mph 91% 0.03 in
02:45 35.4 °F 33.0 °F 30.27 in ENE 6.0 mph 14.0 mph 91% 0.03 in
02:55 35.5 °F 33.1 °F 30.27 in NE 9.0 mph 15.0 mph 91% 0.02 in
03:00 35.5 °F 33.1 °F 30.27 in ENE 3.0 mph 13.0 mph 91% 0.01 in
03:05 35.6 °F 33.2 °F 30.27 in ENE 3.0 mph 8.0 mph 91% 0.01 in
03:10 35.7 °F 33.3 °F 30.27 in NE 4.0 mph 9.0 mph 91% 0.01 in
03:15 35.7 °F 33.3 °F 30.26 in NE 9.0 mph 10.0 mph 91% 0.01 in
03:20 35.7 °F 33.3 °F 30.26 in ENE 6.0 mph 11.0 mph 91% 0.02 in
03:25 35.7 °F 33.3 °F 30.25 in ENE 6.0 mph 12.0 mph 91% 0.02 in
03:30 35.8 °F 33.4 °F 30.25 in NE 7.0 mph 12.0 mph 91% 0.02 in
03:35 35.8 °F 33.4 °F 30.25 in NE 7.0 mph 11.0 mph 91% 0.01 in
03:40 35.7 °F 33.3 °F 30.25 in NE 7.0 mph 13.0 mph 91% 0.01 in
03:45 35.8 °F 33.4 °F 30.25 in ENE 8.0 mph 14.0 mph 91% 0.01 in
03:50 35.8 °F 33.4 °F 30.25 in NE 6.0 mph 14.0 mph 91% 0.01 in
03:55 35.9 °F 33.5 °F 30.25 in NE 7.0 mph 12.0 mph 91% 0.01 in
04:00 35.9 °F 33.5 °F 30.25 in NE 6.0 mph 10.0 mph 91% 0.01 in
04:05 35.9 °F 33.5 °F 30.25 in ENE 12.0 mph 12.0 mph 91% 0.01 in
04:10 35.9 °F 33.5 °F 30.25 in NE 7.0 mph 12.0 mph 91% 0.01 in
04:15 36.0 °F 33.6 °F 30.24 in NNE 7.0 mph 13.0 mph 91% 0.01 in
04:20 36.0 °F 33.6 °F 30.24 in NE 4.0 mph 9.0 mph 91% 0.00 in
04:25 36.0 °F 33.6 °F 30.24 in NE 5.0 mph 12.0 mph 91% 0.00 in
04:30 36.1 °F 33.7 °F 30.24 in NE 6.0 mph 12.0 mph 91% 0.00 in
04:35 36.1 °F 33.7 °F 30.24 in NE 6.0 mph 11.0 mph 91% 0.00 in
04:40 36.1 °F 33.5 °F 30.24 in NE 6.0 mph 11.0 mph 90% 0.00 in
04:44 36.2 °F 33.5 °F 30.24 in NNE 4.0 mph 10.0 mph 90% 0.00 in
04:50 36.3 °F 33.6 °F 30.24 in NE 7.0 mph 10.0 mph 90% 0.00 in
04:55 36.2 °F 33.5 °F 30.23 in NE 7.0 mph 11.0 mph 90% 0.00 in
05:00 36.3 °F 33.6 °F 30.23 in NE 7.0 mph 11.0 mph 90% 0.00 in
05:05 36.3 °F 33.6 °F 30.23 in ENE 7.0 mph 13.0 mph 90% 0.00 in
05:10 36.3 °F 33.6 °F 30.23 in East 7.0 mph 11.0 mph 90% 0.00 in
05:15 36.4 °F 33.7 °F 30.23 in ENE 4.0 mph 14.0 mph 90% 0.00 in
05:20 36.4 °F 33.7 °F 30.23 in NE 9.0 mph 10.0 mph 90% 0.00 in
05:24 36.4 °F 33.7 °F 30.23 in NE 6.0 mph 12.0 mph 90% 0.00 in
05:30 36.4 °F 33.7 °F 30.22 in NE 7.0 mph 12.0 mph 90% 0.00 in
05:35 36.4 °F 33.7 °F 30.23 in NE 7.0 mph 13.0 mph 90% 0.00 in
05:40 36.4 °F 33.7 °F 30.22 in NE 7.0 mph 15.0 mph 90% 0.00 in
05:45 36.4 °F 33.7 °F 30.22 in NE 7.0 mph 15.0 mph 90% 0.00 in
05:50 36.5 °F 33.8 °F 30.22 in NE 6.0 mph 13.0 mph 90% 0.00 in
05:54 36.5 °F 33.8 °F 30.22 in NE 6.0 mph 13.0 mph 90% 0.00 in
06:00 36.6 °F 33.9 °F 30.22 in NE 6.0 mph 11.0 mph 90% 0.00 in
06:05 36.6 °F 33.9 °F 30.22 in NE 7.0 mph 10.0 mph 90% 0.00 in
06:10 36.6 °F 33.9 °F 30.22 in NNE 3.0 mph 13.0 mph 90% 0.00 in
06:15 36.7 °F 34.0 °F 30.21 in NE 2.0 mph 10.0 mph 90% 0.00 in
06:20 36.8 °F 34.1 °F 30.22 in ENE 3.0 mph 8.0 mph 90% 0.00 in
06:25 36.9 °F 34.2 °F 30.21 in NE 4.0 mph 10.0 mph 90% 0.00 in
06:30 36.9 °F 34.2 °F 30.21 in ENE 6.0 mph 13.0 mph 90% 0.00 in
06:35 37.0 °F 34.3 °F 30.21 in ENE 5.0 mph 13.0 mph 90% 0.00 in
06:40 37.0 °F 34.3 °F 30.21 in NE 5.0 mph 10.0 mph 90% 0.00 in
06:45 37.1 °F 34.4 °F 30.21 in NE 5.0 mph 11.0 mph 90% 0.00 in
06:49 37.2 °F 34.5 °F 30.21 in ENE 5.0 mph 10.0 mph 90% 0.00 in
06:54 37.1 °F 34.4 °F 30.21 in ENE 4.0 mph 9.0 mph 90% 0.00 in
06:59 37.2 °F 34.5 °F 30.21 in NE 5.0 mph 11.0 mph 90% 0.00 in
07:04 37.3 °F 34.6 °F 30.20 in NE 5.0 mph 13.0 mph 90% 0.00 in
07:10 37.3 °F 34.6 °F 30.20 in NE 6.0 mph 13.0 mph 90% 0.00 in
07:15 37.4 °F 34.7 °F 30.20 in NE 6.0 mph 11.0 mph 90% 0.00 in
07:20 37.4 °F 34.7 °F 30.20 in NE 6.0 mph 12.0 mph 90% 0.00 in
07:25 37.5 °F 34.8 °F 30.20 in ENE 9.0 mph 12.0 mph 90% 0.00 in
07:30 37.6 °F 34.9 °F 30.20 in NE 4.0 mph 12.0 mph 90% 0.00 in
07:34 37.6 °F 34.9 °F 30.20 in NE 6.0 mph 12.0 mph 90% 0.00 in
07:40 37.7 °F 35.0 °F 30.20 in NE 6.0 mph 11.0 mph 90% 0.00 in
07:45 37.9 °F 35.2 °F 30.20 in NE 6.0 mph 11.0 mph 90% 0.00 in
07:49 37.9 °F 35.2 °F 30.19 in NE 9.0 mph 12.0 mph 90% 0.00 in
07:55 38.0 °F 35.3 °F 30.19 in NE 7.0 mph 11.0 mph 90% 0.00 in
08:00 38.0 °F 35.3 °F 30.19 in ENE 7.0 mph 12.0 mph 90% 0.00 in
08:04 38.2 °F 35.5 °F 30.19 in ENE 6.0 mph 12.0 mph 90% 0.00 in
08:10 38.4 °F 35.7 °F 30.18 in NE 6.0 mph 10.0 mph 90% 0.00 in
08:15 38.6 °F 35.9 °F 30.18 in NE 6.0 mph 10.0 mph 90% 0.00 in
08:20 38.8 °F 36.1 °F 30.18 in NE 5.0 mph 11.0 mph 90% 0.00 in
08:25 39.0 °F 36.0 °F 30.18 in ENE 5.0 mph 8.0 mph 89% 0.00 in
08:30 39.2 °F 36.2 °F 30.18 in ENE 8.0 mph 11.0 mph 89% 0.00 in
08:34 39.4 °F 36.4 °F 30.18 in NE 6.0 mph 11.0 mph 89% 0.00 in
08:40 39.6 °F 36.6 °F 30.18 in NE 6.0 mph 11.0 mph 89% 0.00 in
08:45 39.9 °F 36.9 °F 30.18 in NE 6.0 mph 10.0 mph 89% 0.00 in
08:50 40.2 °F 37.2 °F 30.17 in NE 6.0 mph 11.0 mph 89% 0.00 in
08:54 40.4 °F 37.1 °F 30.17 in East 6.0 mph 11.0 mph 88% 0.00 in
08:59 40.7 °F 37.4 °F 30.17 in NE 6.0 mph 11.0 mph 88% 0.00 in
09:04 40.9 °F 37.6 °F 30.17 in ENE 2.0 mph 9.0 mph 88% 0.00 in
09:09 41.0 °F 37.7 °F 30.17 in NE 5.0 mph 9.0 mph 88% 0.00 in
09:14 41.3 °F 38.0 °F 30.17 in NE 8.0 mph 11.0 mph 88% 0.00 in
09:20 41.7 °F 38.4 °F 30.16 in East 7.0 mph 9.0 mph 88% 0.00 in
09:25 42.0 °F 38.4 °F 30.16 in NE 9.0 mph 10.0 mph 87% 0.00 in
09:30 42.5 °F 38.9 °F 30.16 in NE 3.0 mph 10.0 mph 87% 0.00 in
09:35 42.8 °F 39.2 °F 30.16 in NE 4.0 mph 12.0 mph 87% 0.00 in
09:40 43.1 °F 39.2 °F 30.16 in NE 5.0 mph 12.0 mph 86% 0.00 in
09:44 43.4 °F 39.5 °F 30.16 in NE 5.0 mph 10.0 mph 86% 0.00 in
09:50 43.8 °F 39.9 °F 30.16 in NE 5.0 mph 10.0 mph 86% 0.00 in
09:55 44.1 °F 40.2 °F 30.16 in NE 4.0 mph 8.0 mph 86% 0.00 in
10:00 44.5 °F 40.6 °F 30.16 in NE 4.0 mph 8.0 mph 86% 0.00 in
10:05 44.8 °F 40.6 °F 30.15 in NE 5.0 mph 8.0 mph 85% 0.00 in
10:10 45.4 °F 41.2 °F 30.15 in NE 4.0 mph 7.0 mph 85% 0.00 in
10:14 45.6 °F 41.0 °F 30.16 in NNE 3.0 mph 8.0 mph 84% 0.00 in
10:20 45.9 °F 41.0 °F 30.15 in NE 4.0 mph 8.0 mph 83% 0.00 in
10:25 46.6 °F 42.0 °F 30.16 in ENE 5.0 mph 8.0 mph 84% 0.00 in
10:29 47.2 °F 42.3 °F 30.16 in NE 3.0 mph 7.0 mph 83% 0.00 in
10:35 47.5 °F 42.6 °F 30.16 in NE 3.0 mph 7.0 mph 83% 0.00 in
10:39 47.4 °F 42.2 °F 30.16 in NE 3.0 mph 7.0 mph 82% 0.00 in
10:44 47.7 °F 42.5 °F 30.16 in NE 3.0 mph 8.0 mph 82% 0.00 in
10:50 47.9 °F 42.7 °F 30.15 in NE 3.0 mph 9.0 mph 82% 0.00 in
10:55 47.9 °F 42.7 °F 30.15 in NE 4.0 mph 9.0 mph 82% 0.00 in
10:59 48.2 °F 43.0 °F 30.15 in NNE 3.0 mph 8.0 mph 82% 0.00 in
11:04 48.2 °F 42.6 °F 30.15 in NE 2.0 mph 7.0 mph 81% 0.00 in
11:09 48.3 °F 43.1 °F 30.15 in NE 4.0 mph 8.0 mph 82% 0.00 in
11:14 48.7 °F 43.5 °F 30.15 in NNE 3.0 mph 8.0 mph 82% 0.00 in
11:20 48.8 °F 43.2 °F 30.14 in NNE 4.0 mph 5.0 mph 81% 0.00 in
11:24 49.0 °F 43.4 °F 30.14 in NNE 4.0 mph 6.0 mph 81% 0.00 in
11:29 49.3 °F 43.7 °F 30.14 in NE 3.0 mph 5.0 mph 81% 0.00 in
11:35 50.1 °F 44.5 °F 30.14 in NNE 1.0 mph 4.0 mph 81% 0.00 in
11:39 50.5 °F 44.6 °F 30.14 in NNE 3.0 mph 5.0 mph 80% 0.00 in
11:44 50.7 °F 44.8 °F 30.14 in NNE 3.0 mph 5.0 mph 80% 0.00 in
11:49 50.9 °F 44.6 °F 30.14 in NNE 3.0 mph 5.0 mph 79% 0.00 in
11:55 51.4 °F 45.1 °F 30.14 in NNE 3.0 mph 5.0 mph 79% 0.00 in
12:00 51.7 °F 45.1 °F 30.14 in NE 3.0 mph 6.0 mph 78% 0.00 in
12:05 52.3 °F 46.0 °F 30.13 in NE 3.0 mph 6.0 mph 79% 0.00 in
12:09 53.0 °F 46.0 °F 30.13 in NNE 3.0 mph 7.0 mph 77% 0.00 in
12:14 53.7 °F 47.0 °F 30.13 in NNE 1.0 mph 7.0 mph 78% 0.00 in
12:19 54.1 °F 46.7 °F 30.13 in Calm   5.0 mph 76% 0.00 in
12:24 54.8 °F 47.0 °F 30.13 in NNW 2.0 mph 5.0 mph 75% 0.00 in
12:29 56.5 °F 48.3 °F 30.12 in SSE 4.0 mph 8.0 mph 74% 0.00 in
12:34 57.7 °F 48.7 °F 30.12 in ESE 4.0 mph 9.0 mph 72% 0.00 in
12:39 57.7 °F 48.7 °F 30.12 in NE 5.0 mph 9.0 mph 72% 0.00 in
12:44 58.7 °F 48.9 °F 30.12 in ESE 4.0 mph 9.0 mph 70% 0.00 in
12:49 59.0 °F 49.2 °F 30.11 in ESE 3.0 mph 11.0 mph 70% 0.00 in
12:54 59.2 °F 49.0 °F 30.11 in SE 5.0 mph 11.0 mph 69% 0.00 in
12:59 59.0 °F 48.8 °F 30.11 in SSE 6.0 mph 11.0 mph 69% 0.00 in
13:05 59.5 °F 48.9 °F 30.11 in SSE 6.0 mph 10.0 mph 68% 0.00 in
13:10 60.1 °F 49.5 °F 30.11 in South 5.0 mph 9.0 mph 68% 0.00 in
13:14 60.4 °F 49.4 °F 30.11 in SSW 3.0 mph 11.0 mph 67% 0.00 in
13:19 60.6 °F 49.2 °F 30.10 in SSW 6.0 mph 10.0 mph 66% 0.00 in
13:24 60.9 °F 49.9 °F 30.10 in SSW 3.0 mph 10.0 mph 67% 0.00 in
13:29 61.0 °F 49.1 °F 30.10 in South 7.0 mph 12.0 mph 65% 0.00 in
13:34 60.8 °F 49.4 °F 30.10 in SE 5.0 mph 11.0 mph 66% 0.00 in
13:39 60.7 °F 48.9 °F 30.09 in SW 7.0 mph 11.0 mph 65% 0.00 in
13:44 60.4 °F 48.6 °F 30.09 in South 6.0 mph 13.0 mph 65% 0.00 in
13:49 60.5 °F 48.7 °F 30.09 in South 6.0 mph 13.0 mph 65% 0.00 in
13:54 60.0 °F 48.2 °F 30.08 in South 6.0 mph 12.0 mph 65% 0.00 in
14:00 59.9 °F 48.5 °F 30.08 in South 6.0 mph 12.0 mph 66% 0.00 in
14:04 60.0 °F 48.2 °F 30.08 in South 6.0 mph 11.0 mph 65% 0.00 in
14:10 59.8 °F 48.0 °F 30.08 in SE 6.0 mph 10.0 mph 65% 0.00 in
14:15 60.2 °F 48.4 °F 30.08 in SSE 5.0 mph 10.0 mph 65% 0.00 in
14:19 60.0 °F 47.8 °F 30.07 in SSE 6.0 mph 12.0 mph 64% 0.00 in
14:24 60.7 °F 48.4 °F 30.07 in SSE 6.0 mph 12.0 mph 64% 0.00 in
14:29 60.4 °F 48.2 °F 30.06 in South 4.0 mph 9.0 mph 64% 0.00 in
14:34 60.3 °F 48.1 °F 30.06 in SSE 7.0 mph 10.0 mph 64% 0.00 in
14:39 60.3 °F 48.1 °F 30.06 in SE 3.0 mph 9.0 mph 64% 0.00 in
14:44 60.3 °F 48.1 °F 30.05 in SSE 3.0 mph 7.0 mph 64% 0.00 in
14:49 60.1 °F 47.9 °F 30.05 in SSE 5.0 mph 9.0 mph 64% 0.00 in
14:54 59.8 °F 48.0 °F 30.05 in SSE 5.0 mph 14.0 mph 65% 0.00 in
14:59 59.8 °F 48.0 °F 30.05 in SE 5.0 mph 14.0 mph 65% 0.00 in
15:04 60.1 °F 47.9 °F 30.05 in SSE 5.0 mph 11.0 mph 64% 0.00 in
15:09 60.2 °F 48.4 °F 30.04 in SSE 6.0 mph 12.0 mph 65% 0.00 in
15:15 60.2 °F 48.0 °F 30.04 in SSE 6.0 mph 12.0 mph 64% 0.00 in
15:20 60.5 °F 48.3 °F 30.04 in SSE 6.0 mph 12.0 mph 64% 0.00 in
15:24 60.7 °F 48.0 °F 30.03 in SSE 5.0 mph 12.0 mph 63% 0.00 in
15:29 61.3 °F 49.0 °F 30.04 in SSE 6.0 mph 12.0 mph 64% 0.00 in
15:34 61.1 °F 48.4 °F 30.04 in SSE 7.0 mph 10.0 mph 63% 0.00 in
15:39 60.9 °F 48.6 °F 30.03 in SSE 5.0 mph 8.0 mph 64% 0.00 in
15:44 61.2 °F 48.5 °F 30.03 in SSE 9.0 mph 11.0 mph 63% 0.00 in
15:49 61.3 °F 48.2 °F 30.03 in South 5.0 mph 11.0 mph 62% 0.00 in
15:54 61.1 °F 48.4 °F 30.03 in SSE 9.0 mph 13.0 mph 63% 0.00 in
15:59 61.3 °F 48.6 °F 30.03 in South 7.0 mph 13.0 mph 63% 0.00 in
16:04 61.6 °F 48.0 °F 30.02 in SSE 7.0 mph 13.0 mph 61% 0.00 in
16:09 61.8 °F 48.2 °F 30.02 in SSE 7.0 mph 13.0 mph 61% 0.00 in
16:14 61.8 °F 48.6 °F 30.02 in South 7.0 mph 13.0 mph 62% 0.00 in
16:19 61.8 °F 48.6 °F 30.02 in South 8.0 mph 10.0 mph 62% 0.00 in
16:24 61.6 °F 48.0 °F 30.01 in ESE 5.0 mph 14.0 mph 61% 0.00 in
16:29 61.2 °F 47.6 °F 30.01 in South 7.0 mph 14.0 mph 61% 0.00 in
16:34 60.9 °F 47.8 °F 30.01 in South 6.0 mph 11.0 mph 62% 0.00 in
16:39 60.9 °F 47.8 °F 30.01 in SSW 3.0 mph 11.0 mph 62% 0.00 in
16:44 61.0 °F 47.9 °F 30.01 in South 3.0 mph 13.0 mph 62% 0.00 in
16:49 60.8 °F 47.7 °F 30.01 in ESE 8.0 mph 10.0 mph 62% 0.00 in
16:54 60.6 °F 47.5 °F 30.01 in South 8.0 mph 10.0 mph 62% 0.00 in
16:59 60.3 °F 47.2 °F 30.01 in SE 6.0 mph 12.0 mph 62% 0.00 in
17:04 59.9 °F 46.8 °F 30.01 in SSE 8.0 mph 13.0 mph 62% 0.00 in
17:09 59.6 °F 47.0 °F 30.01 in SSE 8.0 mph 15.0 mph 63% 0.00 in
17:14 59.5 °F 46.9 °F 30.01 in South 4.0 mph 9.0 mph 63% 0.00 in
17:19 59.2 °F 46.6 °F 30.01 in South 4.0 mph 10.0 mph 63% 0.00 in
17:24 58.9 °F 46.3 °F 30.01 in SSE 5.0 mph 10.0 mph 63% 0.00 in
17:29 58.7 °F 46.5 °F 30.02 in South 5.0 mph 8.0 mph 64% 0.00 in
17:34 58.3 °F 46.2 °F 30.02 in South 4.0 mph 10.0 mph 64% 0.00 in
17:39 58.0 °F 46.3 °F 30.01 in SSE 5.0 mph 10.0 mph 65% 0.00 in
17:44 57.8 °F 46.1 °F 30.02 in SSE 5.0 mph 12.0 mph 65% 0.00 in
17:49 57.4 °F 45.7 °F 30.02 in SSE 6.0 mph 12.0 mph 65% 0.00 in
17:55 57.1 °F 45.8 °F 30.01 in South 4.0 mph 9.0 mph 66% 0.00 in
17:59 56.9 °F 45.7 °F 30.01 in SSE 5.0 mph 12.0 mph 66% 0.00 in
18:04 56.7 °F 45.5 °F 30.02 in South 4.0 mph 10.0 mph 66% 0.00 in
18:09 56.5 °F 45.3 °F 30.01 in SE 6.0 mph 13.0 mph 66% 0.00 in
18:14 56.5 °F 45.3 °F 30.01 in SW 5.0 mph 13.0 mph 66% 0.00 in
18:19 56.3 °F 45.1 °F 30.01 in SSE 4.0 mph 11.0 mph 66% 0.00 in
18:24 56.2 °F 45.4 °F 30.01 in SE 7.0 mph 11.0 mph 67% 0.00 in
18:29 56.0 °F 45.2 °F 30.01 in SSE 5.0 mph 9.0 mph 67% 0.00 in
18:34 56.0 °F 45.2 °F 30.01 in SE 4.0 mph 10.0 mph 67% 0.00 in
18:39 55.7 °F 44.9 °F 30.01 in SSE 5.0 mph 12.0 mph 67% 0.00 in
18:44 55.5 °F 44.7 °F 30.01 in SSE 6.0 mph 12.0 mph 67% 0.00 in
18:49 55.2 °F 44.8 °F 30.02 in SSE 5.0 mph 11.0 mph 68% 0.00 in
18:54 55.1 °F 44.7 °F 30.02 in South 5.0 mph 11.0 mph 68% 0.00 in
18:59 54.8 °F 44.4 °F 30.02 in South 5.0 mph 11.0 mph 68% 0.00 in
19:04 54.5 °F 44.5 °F 30.01 in South 5.0 mph 11.0 mph 69% 0.00 in
19:10 54.2 °F 44.2 °F 30.01 in South 5.0 mph 10.0 mph 69% 0.00 in
19:14 54.0 °F 44.4 °F 30.01 in South 6.0 mph 10.0 mph 70% 0.00 in
19:19 53.7 °F 44.1 °F 30.01 in SE 2.0 mph 9.0 mph 70% 0.00 in
19:24 53.5 °F 44.3 °F 30.01 in SSE 5.0 mph 9.0 mph 71% 0.00 in
19:29 53.4 °F 44.2 °F 30.01 in South 5.0 mph 10.0 mph 71% 0.00 in
19:34 53.2 °F 44.0 °F 30.01 in SSE 3.0 mph 7.0 mph 71% 0.00 in
19:39 53.1 °F 43.9 °F 30.01 in SSW 5.0 mph 8.0 mph 71% 0.00 in
19:44 52.9 °F 43.7 °F 30.00 in SSE 4.0 mph 9.0 mph 71% 0.00 in
19:49 52.8 °F 44.0 °F 30.00 in SSE 4.0 mph 9.0 mph 72% 0.00 in
19:54 52.8 °F 44.0 °F 30.00 in SSE 3.0 mph 9.0 mph 72% 0.00 in
19:59 52.6 °F 43.8 °F 29.99 in SSE 4.0 mph 9.0 mph 72% 0.00 in
20:04 52.5 °F 43.7 °F 29.99 in SE 5.0 mph 7.0 mph 72% 0.00 in
20:09 52.5 °F 43.7 °F 30.00 in South 4.0 mph 6.0 mph 72% 0.00 in
20:14 52.5 °F 43.7 °F 30.01 in South 5.0 mph 9.0 mph 72% 0.00 in
20:19 52.4 °F 43.6 °F 30.01 in South 4.0 mph 9.0 mph 72% 0.00 in
20:24 52.4 °F 43.6 °F 30.01 in South 4.0 mph 9.0 mph 72% 0.00 in
20:29 52.3 °F 43.9 °F 30.00 in South 5.0 mph 9.0 mph 73% 0.00 in
20:34 52.1 °F 44.1 °F 30.00 in South 5.0 mph 9.0 mph 74% 0.00 in
20:39 51.7 °F 44.4 °F 30.00 in SE 3.0 mph 7.0 mph 76% 0.00 in
20:44 51.4 °F 44.4 °F 30.00 in South 2.0 mph 6.0 mph 77% 0.00 in
20:49 51.1 °F 44.8 °F 30.00 in South 4.0 mph 7.0 mph 79% 0.00 in
20:54 50.9 °F 44.6 °F 30.01 in South 4.0 mph 7.0 mph 79% 0.00 in
20:59 50.8 °F 44.9 °F 30.00 in South 6.0 mph 9.0 mph 80% 0.00 in
21:04 50.7 °F 44.8 °F 30.01 in SSE 4.0 mph 9.0 mph 80% 0.00 in
21:09 50.6 °F 44.7 °F 30.00 in SSE 2.0 mph 8.0 mph 80% 0.00 in
21:14 50.6 °F 44.7 °F 30.01 in SSE 5.0 mph 7.0 mph 80% 0.00 in
21:19 50.6 °F 44.7 °F 30.01 in South 3.0 mph 7.0 mph 80% 0.00 in
21:24 50.5 °F 44.6 °F 30.01 in South 3.0 mph 6.0 mph 80% 0.00 in
21:29 50.5 °F 44.6 °F 30.00 in South 3.0 mph 5.0 mph 80% 0.00 in
21:34 50.5 °F 44.6 °F 30.00 in South 5.0 mph 6.0 mph 80% 0.00 in
21:39 50.5 °F 44.6 °F 30.00 in South 5.0 mph 7.0 mph 80% 0.00 in
21:44 50.6 °F 44.3 °F 30.00 in South 3.0 mph 6.0 mph 79% 0.00 in
21:49 50.5 °F 44.2 °F 30.00 in South 4.0 mph 9.0 mph 79% 0.00 in
21:54 50.5 °F 44.2 °F 30.00 in South 6.0 mph 6.0 mph 79% 0.00 in
21:59 50.5 °F 44.2 °F 30.00 in SSE 6.0 mph 7.0 mph 79% 0.00 in
22:04 50.5 °F 44.2 °F 30.00 in SSE 4.0 mph 10.0 mph 79% 0.00 in
22:09 50.4 °F 44.1 °F 30.00 in SSW 3.0 mph 9.0 mph 79% 0.00 in
22:14 50.4 °F 44.1 °F 30.00 in SSW 3.0 mph 7.0 mph 79% 0.00 in
22:19 50.3 °F 44.0 °F 30.00 in South 4.0 mph 7.0 mph 79% 0.00 in
22:24 50.1 °F 43.8 °F 30.00 in South 4.0 mph 8.0 mph 79% 0.00 in
22:29 50.0 °F 44.1 °F 30.00 in South 4.0 mph 9.0 mph 80% 0.00 in
22:34 49.8 °F 43.9 °F 29.99 in South 4.0 mph 9.0 mph 80% 0.00 in
22:39 49.8 °F 43.9 °F 30.00 in SSW 4.0 mph 9.0 mph 80% 0.01 in
22:44 49.6 °F 44.0 °F 29.99 in South 3.0 mph 7.0 mph 81% 0.01 in
22:49 49.4 °F 44.1 °F 30.00 in South 3.0 mph 7.0 mph 82% 0.02 in
22:54 49.2 °F 44.3 °F 29.99 in South 3.0 mph 7.0 mph 83% 0.02 in
22:59 49.0 °F 44.4 °F 29.99 in South 3.0 mph 6.0 mph 84% 0.03 in
23:04 48.9 °F 44.3 °F 29.99 in South 2.0 mph 7.0 mph 84% 0.03 in
23:09 48.8 °F 44.2 °F 29.98 in SSW 2.0 mph 8.0 mph 84% 0.03 in
23:14 48.8 °F 44.5 °F 29.98 in SSW 4.0 mph 5.0 mph 85% 0.04 in
23:19 48.7 °F 44.4 °F 29.98 in SSW 3.0 mph 7.0 mph 85% 0.04 in
23:24 48.7 °F 44.4 °F 29.99 in South 3.0 mph 7.0 mph 85% 0.04 in
23:29 48.6 °F 44.6 °F 29.98 in South 2.0 mph 5.0 mph 86% 0.05 in
23:34 48.4 °F 44.4 °F 29.98 in South 1.0 mph 5.0 mph 86% 0.05 in
23:39 48.3 °F 44.6 °F 29.98 in South 2.0 mph 5.0 mph 87% 0.04 in
23:44 48.3 °F 44.6 °F 29.98 in SSE 1.0 mph 3.0 mph 87% 0.04 in
23:49 48.2 °F 44.5 °F 29.98 in SSE 1.0 mph 4.0 mph 87% 0.03 in
23:54 48.3 °F 44.6 °F 29.97 in South 2.0 mph 6.0 mph 87% 0.03 in
23:59 48.3 °F 44.6 °F 29.97 in South 2.0 mph 5.0 mph 87% 0.02 in
Buffalo, New York, USA
Compliments of Weather Underground - 2.5 mb